Time;durP1;ratioP1;P1;durP2;ratioP2;P2;SDS_P1;SDS_P2;PMS_P1;PMS_P2;Temp;Humidity;BMP_temperature;BMP_pressure;BME280_temperature;BME280_humidity;BME280_pressure;Samples;Min_cycle;Max_cycle;Signal;HPM_P1;HPM_P2
2022/06/08 00:00:21;;;;;;;5.17;3.90;;;18.50;1.00;;;;;;5073257;28;20472;-76
2022/06/08 00:02:51;;;;;;;5.73;4.20;;;18.60;1.00;;;;;;5074869;28;20447;-76
2022/06/08 00:05:18;;;;;;;6.23;3.83;;;18.60;1.00;;;;;;5072158;28;20534;-76
2022/06/08 00:07:46;;;;;;;5.70;4.23;;;18.70;1.00;;;;;;5073216;28;20533;-77
2022/06/08 00:10:17;;;;;;;5.30;3.90;;;18.70;1.00;;;;;;5072316;28;20834;-77
2022/06/08 00:12:47;;;;;;;6.20;4.10;;;18.70;1.00;;;;;;5072774;28;21174;-77
2022/06/08 00:15:16;;;;;;;5.77;3.73;;;18.60;1.00;;;;;;5069555;28;20469;-76
2022/06/08 00:17:43;;;;;;;5.40;4.00;;;18.60;1.00;;;;;;5077435;27;20578;-76
2022/06/08 00:20:12;;;;;;;8.10;4.40;;;18.60;1.00;;;;;;5052191;28;20528;-77
2022/06/08 00:22:40;;;;;;;7.20;3.93;;;18.50;1.00;;;;;;5048710;28;20458;-77
2022/06/08 00:25:08;;;;;;;6.40;4.00;;;18.50;1.00;;;;;;5049637;28;20456;-77
2022/06/08 00:27:39;;;;;;;6.30;4.33;;;18.40;1.00;;;;;;5050141;28;20500;-75
2022/06/08 00:30:08;;;;;;;6.63;4.93;;;18.40;1.00;;;;;;5066700;28;21321;-76
2022/06/08 00:32:38;;;;;;;7.67;5.37;;;18.40;1.00;;;;;;5071010;28;20455;-75
2022/06/08 00:35:08;;;;;;;7.30;5.70;;;18.40;1.00;;;;;;5068719;28;20457;-76
2022/06/08 00:37:35;;;;;;;10.40;6.23;;;18.50;1.00;;;;;;5072617;28;21711;-76
2022/06/08 00:40:02;;;;;;;7.87;6.20;;;18.50;1.00;;;;;;5070393;28;20481;-76
2022/06/08 00:42:29;;;;;;;5.80;5.20;;;18.50;1.00;;;;;;5064583;28;20458;-78
2022/06/08 00:45:01;;;;;;;7.50;5.80;;;18.50;1.00;;;;;;5070477;28;20476;-76
2022/06/08 00:47:31;;;;;;;9.27;6.33;;;18.60;1.00;;;;;;5077802;28;20633;-76
2022/06/08 00:50:02;;;;;;;10.57;7.77;;;18.50;1.00;;;;;;5078782;28;20469;-76
2022/06/08 00:52:29;;;;;;;6.70;5.20;;;18.50;1.00;;;;;;5079762;28;20462;-76
2022/06/08 00:55:01;;;;;;;6.43;4.97;;;18.50;1.00;;;;;;5080467;28;20455;-76
2022/06/08 00:57:31;;;;;;;7.80;4.90;;;18.60;1.00;;;;;;5079711;28;20467;-77
2022/06/08 01:00:05;;;;;;;6.00;4.20;;;18.50;1.00;;;;;;5080993;28;20451;-76
2022/06/08 01:02:32;;;;;;;6.10;4.47;;;18.60;1.00;;;;;;5075046;28;20509;-76
2022/06/08 01:05:19;;;;;;;9.73;4.87;;;18.50;1.00;;;;;;5072271;28;20525;-76
2022/06/08 01:07:46;;;;;;;8.13;5.80;;;18.50;1.00;;;;;;5071917;28;20582;-76
2022/06/08 01:10:16;;;;;;;6.20;5.30;;;18.50;1.00;;;;;;5068336;28;20480;-77
2022/06/08 01:12:43;;;;;;;6.40;4.90;;;18.50;1.00;;;;;;5068776;28;20473;-76
2022/06/08 01:15:15;;;;;;;7.70;5.23;;;18.40;1.00;;;;;;5070546;28;20470;-76
2022/06/08 01:17:42;;;;;;;5.43;4.67;;;18.30;1.00;;;;;;5069393;28;20471;-76
2022/06/08 01:20:11;;;;;;;7.30;5.23;;;18.10;1.00;;;;;;5069754;28;20490;-76
2022/06/08 01:22:40;;;;;;;6.47;5.17;;;18.00;1.00;;;;;;5071684;28;20561;-77
2022/06/08 01:25:09;;;;;;;6.10;5.40;;;17.90;1.00;;;;;;5069932;28;20557;-77
2022/06/08 01:27:52;;;;;;;5.90;5.10;;;17.80;1.00;;;;;;5070733;28;20466;-77
2022/06/08 01:30:22;;;;;;;8.60;5.73;;;17.80;1.00;;;;;;5068066;28;20480;-77
2022/06/08 01:33:21;;;;;;;5.93;5.00;;;17.60;1.00;;;;;;5069618;28;20991;-76
2022/06/08 01:36:03;;;;;;;6.97;5.90;;;17.50;1.00;;;;;;5069050;28;20477;-77
2022/06/08 01:38:40;;;;;;;7.70;5.70;;;17.50;1.00;;;;;;5068830;28;21024;-76
2022/06/08 01:41:23;;;;;;;6.60;5.50;;;17.40;1.00;;;;;;5070323;28;20471;-76
2022/06/08 01:43:57;;;;;;;7.30;6.07;;;17.30;1.00;;;;;;5071366;28;20455;-77
2022/06/08 01:46:26;;;;;;;7.07;5.80;;;17.30;1.00;;;;;;5069519;28;20458;-76
2022/06/08 01:49:16;;;;;;;8.47;5.93;;;17.20;1.00;;;;;;5063535;28;20469;-76
2022/06/08 01:51:56;;;;;;;6.00;5.03;;;17.20;1.00;;;;;;5067622;28;20481;-76
2022/06/08 01:54:39;;;;;;;6.20;5.60;;;17.10;1.00;;;;;;5073013;28;20500;-77
2022/06/08 01:57:14;;;;;;;9.77;5.87;;;17.00;1.00;;;;;;5075289;28;20455;-76
2022/06/08 01:59:49;;;;;;;8.27;5.43;;;17.00;1.00;;;;;;5071503;28;20460;-76
2022/06/08 02:02:26;;;;;;;6.27;5.50;;;16.90;1.00;;;;;;5071825;28;20474;-75
2022/06/08 02:05:00;;;;;;;6.00;5.23;;;16.90;1.00;;;;;;5069986;28;20457;-76
2022/06/08 02:07:34;;;;;;;6.47;5.80;;;16.80;1.00;;;;;;5075583;28;21276;-77
2022/06/08 02:10:10;;;;;;;6.90;5.63;;;16.80;1.00;;;;;;5075138;28;20443;-76
2022/06/08 02:12:43;;;;;;;6.80;6.10;;;16.80;1.00;;;;;;5074536;28;20485;-76
2022/06/08 02:15:17;;;;;;;6.53;5.90;;;16.70;1.00;;;;;;5076809;28;20601;-74
2022/06/08 02:17:49;;;;;;;5.63;4.70;;;16.70;1.00;;;;;;5075796;28;20463;-74
2022/06/08 02:20:21;;;;;;;6.17;5.57;;;16.70;1.00;;;;;;5073851;28;20448;-74
2022/06/08 02:22:52;;;;;;;9.03;5.83;;;16.70;1.00;;;;;;5070381;28;20952;-75
2022/06/08 02:25:25;;;;;;;6.23;5.63;;;16.70;1.00;;;;;;5073097;28;20462;-75
2022/06/08 02:27:59;;;;;;;6.73;5.30;;;16.70;1.00;;;;;;5068696;28;20463;-75
2022/06/08 02:30:29;;;;;;;6.00;5.33;;;16.80;1.00;;;;;;5065921;28;20429;-75
2022/06/08 02:35:52;;;;;;;6.43;5.73;;;16.70;1.00;;;;;;5060199;28;20532;-74
2022/06/08 02:38:24;;;;;;;7.43;5.20;;;16.70;1.00;;;;;;5049445;28;20467;-74
2022/06/08 02:40:55;;;;;;;10.73;6.60;;;16.80;1.00;;;;;;5057872;28;20473;-77
2022/06/08 02:43:26;;;;;;;8.83;6.10;;;16.80;1.00;;;;;;5057430;28;20513;-77
2022/06/08 02:46:03;;;;;;;6.70;6.00;;;16.80;1.00;;;;;;5050773;28;20466;-77
2022/06/08 02:48:30;;;;;;;8.73;6.60;;;16.90;1.00;;;;;;5070634;27;20604;-75
2022/06/08 02:50:58;;;;;;;9.10;7.93;;;16.90;1.00;;;;;;5049893;28;20468;-75
2022/06/08 02:53:50;;;;;;;9.27;6.27;;;16.90;1.00;;;;;;5051339;28;20475;-75
2022/06/08 02:56:27;;;;;;;8.70;6.17;;;17.00;1.00;;;;;;5072123;28;20997;-75
2022/06/08 02:58:59;;;;;;;7.30;6.13;;;17.00;1.00;;;;;;5068872;28;20462;-74
2022/06/08 03:01:40;;;;;;;7.43;6.73;;;17.10;1.00;;;;;;5070506;28;20965;-76
2022/06/08 03:04:13;;;;;;;9.60;6.13;;;17.10;1.00;;;;;;5074245;28;20525;-75
2022/06/08 03:06:44;;;;;;;7.33;5.93;;;17.10;1.00;;;;;;5070006;28;20451;-77
2022/06/08 03:09:14;;;;;;;7.63;6.70;;;17.10;1.00;;;;;;5072197;28;20450;-76
2022/06/08 03:11:45;;;;;;;8.13;6.03;;;17.00;1.00;;;;;;5073938;28;20489;-76
2022/06/08 03:14:15;;;;;;;6.27;5.63;;;17.00;1.00;;;;;;5075326;28;20467;-75
2022/06/08 03:16:54;;;;;;;7.47;6.63;;;16.90;1.00;;;;;;5069273;28;20473;-75
2022/06/08 03:19:21;;;;;;;9.17;7.60;;;16.90;1.00;;;;;;5071988;28;20459;-77
2022/06/08 03:21:48;;;;;;;9.03;6.70;;;16.90;1.00;;;;;;5074695;28;20471;-76
2022/06/08 03:24:16;;;;;;;7.80;6.40;;;16.80;1.00;;;;;;5073703;28;20474;-75
2022/06/08 03:26:48;;;;;;;8.00;5.90;;;16.80;1.00;;;;;;5068314;28;20461;-75
2022/06/08 03:29:15;;;;;;;8.93;6.70;;;16.80;1.00;;;;;;5071360;28;20954;-76
2022/06/08 03:31:43;;;;;;;8.67;6.40;;;16.70;1.00;;;;;;5067885;28;20838;-76
2022/06/08 03:34:10;;;;;;;9.03;7.03;;;16.70;1.00;;;;;;5076033;28;20546;-75
2022/06/08 03:36:37;;;;;;;8.97;6.67;;;16.60;1.00;;;;;;5077249;28;20480;-76
2022/06/08 03:39:04;;;;;;;10.83;7.03;;;16.60;1.00;;;;;;5069531;28;20529;-75
2022/06/08 03:41:32;;;;;;;7.63;6.73;;;16.60;1.00;;;;;;5074830;28;20910;-75
2022/06/08 03:44:00;;;;;;;8.17;6.80;;;16.60;1.00;;;;;;5074820;28;20438;-75
2022/06/08 03:46:29;;;;;;;7.63;6.60;;;16.60;1.00;;;;;;5071582;28;21087;-74
2022/06/08 03:48:56;;;;;;;7.60;6.80;;;16.60;1.00;;;;;;5075477;28;20462;-75
2022/06/08 03:51:24;;;;;;;8.43;6.40;;;16.60;1.00;;;;;;5074464;28;21267;-74
2022/06/08 03:53:56;;;;;;;8.90;7.43;;;16.60;1.00;;;;;;5070923;28;20482;-75
2022/06/08 03:56:26;;;;;;;6.90;6.20;;;16.60;1.00;;;;;;5069748;28;20467;-76
2022/06/08 03:58:54;;;;;;;8.50;6.80;;;16.80;1.00;;;;;;5052473;28;22252;-75
2022/06/08 04:01:24;;;;;;;8.40;6.77;;;16.80;1.00;;;;;;5055337;28;20475;-75
2022/06/08 04:03:52;;;;;;;6.30;5.50;;;16.90;1.00;;;;;;5044757;28;20509;-74
2022/06/08 04:06:21;;;;;;;6.97;6.23;;;16.90;1.00;;;;;;5051867;28;20497;-75
2022/06/08 04:08:49;;;;;;;7.47;5.73;;;17.00;1.00;;;;;;5051658;28;21265;-74
2022/06/08 04:11:16;;;;;;;6.80;5.93;;;17.10;1.00;;;;;;5049320;28;20467;-75
2022/06/08 04:13:43;;;;;;;6.80;5.70;;;17.10;1.00;;;;;;5061113;28;20474;-75
2022/06/08 04:16:10;;;;;;;8.90;6.27;;;17.30;1.00;;;;;;5067513;28;20474;-74
2022/06/08 04:18:38;;;;;;;6.47;5.80;;;17.30;1.00;;;;;;5067222;28;20466;-74
2022/06/08 04:21:08;;;;;;;7.53;6.17;;;17.40;1.00;;;;;;5070675;28;20458;-74
2022/06/08 04:23:36;;;;;;;7.23;5.33;;;17.60;1.00;;;;;;5061104;28;20472;-75
2022/06/08 04:26:04;;;;;;;6.23;5.50;;;17.70;1.00;;;;;;5070931;28;20629;-74
2022/06/08 04:28:31;;;;;;;6.40;5.80;;;17.90;1.00;;;;;;5069493;28;20471;-77
2022/06/08 04:30:59;;;;;;;5.97;4.70;;;18.00;1.00;;;;;;5047623;28;21150;-74
2022/06/08 04:33:27;;;;;;;7.80;5.97;;;18.10;1.00;;;;;;5065505;28;20478;-75
2022/06/08 04:35:56;;;;;;;6.40;5.63;;;18.10;1.00;;;;;;5069933;28;20463;-76
2022/06/08 04:38:23;;;;;;;7.27;5.30;;;18.10;1.00;;;;;;5071228;28;20455;-76
2022/06/08 04:40:52;;;;;;;6.80;5.63;;;18.10;1.00;;;;;;5074335;28;20459;-76
2022/06/08 04:43:19;;;;;;;9.53;5.47;;;18.10;1.00;;;;;;5075343;28;20476;-76
2022/06/08 04:45:46;;;;;;;6.27;5.53;;;18.10;1.00;;;;;;5072781;28;20481;-75
2022/06/08 04:48:16;;;;;;;6.03;4.83;;;18.10;1.00;;;;;;5074987;28;20483;-75
2022/06/08 04:50:44;;;;;;;6.50;5.40;;;18.20;1.00;;;;;;5071431;28;20446;-75
2022/06/08 04:53:12;;;;;;;6.77;5.10;;;18.30;1.00;;;;;;5068304;28;20546;-75
2022/06/08 04:55:39;;;;;;;7.13;5.37;;;18.30;1.00;;;;;;5066254;28;20466;-76
2022/06/08 04:58:06;;;;;;;7.00;5.10;;;18.50;1.00;;;;;;5068915;28;20462;-75
2022/06/08 05:00:35;;;;;;;5.87;4.37;;;18.50;1.00;;;;;;5068641;28;20459;-77
2022/06/08 05:03:02;;;;;;;6.27;4.90;;;18.50;1.00;;;;;;5072105;28;20864;-77
2022/06/08 05:05:32;;;;;;;6.93;4.90;;;18.60;1.00;;;;;;5073251;28;20458;-77
2022/06/08 05:08:01;;;;;;;5.33;4.13;;;18.60;1.00;;;;;;5070454;28;20450;-75
2022/06/08 05:10:35;;;;;;;5.67;4.67;;;18.60;1.00;;;;;;5069946;28;20476;-76
2022/06/08 05:13:06;;;;;;;5.43;4.73;;;18.50;1.00;;;;;;5067708;28;20469;-78
2022/06/08 05:15:39;;;;;;;5.63;5.03;;;18.60;1.00;;;;;;5067486;28;20447;-75
2022/06/08 05:18:06;;;;;;;5.23;4.70;;;18.50;1.00;;;;;;5068401;28;20548;-75
2022/06/08 05:20:34;;;;;;;5.60;4.77;;;18.50;1.00;;;;;;5074262;28;20432;-76
2022/06/08 05:23:02;;;;;;;6.07;4.70;;;18.50;1.00;;;;;;5070624;28;20463;-76
2022/06/08 05:25:32;;;;;;;4.80;4.17;;;18.70;1.00;;;;;;5070256;28;20521;-77
2022/06/08 05:28:02;;;;;;;6.27;5.03;;;18.90;1.00;;;;;;5070122;28;20442;-74
2022/06/08 05:30:29;;;;;;;5.10;4.60;;;19.00;1.00;;;;;;5072747;28;20462;-78
2022/06/08 05:32:57;;;;;;;4.40;3.87;;;19.10;1.00;;;;;;5078297;28;20486;-76
2022/06/08 05:35:25;;;;;;;5.60;4.40;;;19.10;1.00;;;;;;5080754;28;20454;-76
2022/06/08 05:37:54;;;;;;;4.90;3.93;;;19.20;1.00;;;;;;5081080;27;20873;-74
2022/06/08 05:40:22;;;;;;;7.60;4.67;;;19.20;1.00;;;;;;5089436;28;20454;-76
2022/06/08 05:42:52;;;;;;;6.20;4.27;;;19.30;1.00;;;;;;5079985;28;20905;-73
2022/06/08 05:45:22;;;;;;;8.00;5.27;;;19.40;1.00;;;;;;5082134;28;20506;-74
2022/06/08 05:47:49;;;;;;;6.70;4.40;;;19.50;1.00;;;;;;5081607;28;20538;-76
2022/06/08 05:50:18;;;;;;;5.40;4.30;;;19.60;1.00;;;;;;5081230;28;20447;-74
2022/06/08 05:52:45;;;;;;;18.80;9.30;;;19.70;1.00;;;;;;5081339;28;20473;-76
2022/06/08 05:55:13;;;;;;;5.40;4.20;;;19.90;1.00;;;;;;5079748;28;20452;-72
2022/06/08 05:57:41;;;;;;;5.00;4.07;;;19.90;1.00;;;;;;5064847;28;20499;-76
2022/06/08 06:00:15;;;;;;;4.57;3.30;;;20.00;1.00;;;;;;5067054;28;20471;-74
2022/06/08 06:02:43;;;;;;;4.13;3.60;;;20.10;1.00;;;;;;5080012;28;20570;-78
2022/06/08 06:05:13;;;;;;;6.60;4.33;;;20.10;1.00;;;;;;5082619;28;20540;-74
2022/06/08 06:07:41;;;;;;;6.40;4.03;;;20.00;1.00;;;;;;5068908;28;20468;-77
2022/06/08 06:10:09;;;;;;;6.17;3.97;;;19.90;1.00;;;;;;5071091;28;20602;-75
2022/06/08 06:12:36;;;;;;;4.10;3.47;;;19.90;1.00;;;;;;5073460;28;20475;-75
2022/06/08 06:15:04;;;;;;;4.17;3.67;;;19.90;1.00;;;;;;5068972;28;20450;-76
2022/06/08 06:17:32;;;;;;;4.80;3.37;;;19.90;1.00;;;;;;5067901;28;20943;-75
2022/06/08 06:20:00;;;;;;;4.50;3.20;;;19.90;1.00;;;;;;5062591;28;20583;-75
2022/06/08 06:22:27;;;;;;;5.53;4.00;;;19.90;1.00;;;;;;5067648;28;20474;-75
2022/06/08 06:24:55;;;;;;;4.07;3.23;;;20.10;1.00;;;;;;5060065;28;20452;-75
2022/06/08 06:27:22;;;;;;;6.63;3.77;;;20.20;1.00;;;;;;5085244;28;20891;-75
2022/06/08 06:29:51;;;;;;;6.20;3.50;;;20.20;1.00;;;;;;5067824;28;20493;-74
2022/06/08 06:32:24;;;;;;;8.20;3.77;;;20.30;1.00;;;;;;5072878;28;20556;-76
2022/06/08 06:34:52;;;;;;;10.77;4.23;;;20.50;1.00;;;;;;5071978;28;20466;-74
2022/06/08 06:37:20;;;;;;;5.70;4.33;;;20.60;1.00;;;;;;5072386;28;20966;-75
2022/06/08 06:39:47;;;;;;;8.23;4.10;;;20.90;1.00;;;;;;5074806;28;20545;-75
2022/06/08 06:42:16;;;;;;;4.40;3.40;;;21.10;1.00;;;;;;5072563;28;20489;-75
2022/06/08 06:44:44;;;;;;;4.90;4.20;;;21.50;1.00;;;;;;5072457;28;20462;-75
2022/06/08 06:47:14;;;;;;;5.60;3.20;;;21.70;1.00;;;;;;5082347;27;20916;-75
2022/06/08 06:49:41;;;;;;;4.00;3.60;;;21.70;1.00;;;;;;5080866;28;20463;-75
2022/06/08 06:52:12;;;;;;;4.73;3.50;;;21.80;1.00;;;;;;5073178;28;20524;-75
2022/06/08 06:54:39;;;;;;;5.30;3.73;;;21.90;1.00;;;;;;5095828;28;20470;-75
2022/06/08 06:57:06;;;;;;;5.13;3.60;;;22.10;1.00;;;;;;5075107;28;20464;-76
2022/06/08 06:59:35;;;;;;;5.23;3.40;;;22.30;1.00;;;;;;5072241;28;20995;-75
2022/06/08 07:02:02;;;;;;;6.20;4.07;;;22.40;1.00;;;;;;5074069;28;20474;-74
2022/06/08 07:04:32;;;;;;;6.17;3.27;;;22.50;1.00;;;;;;5074406;28;20562;-77
2022/06/08 07:06:59;;;;;;;5.67;3.57;;;22.50;1.00;;;;;;5070416;28;20453;-76
2022/06/08 07:09:28;;;;;;;6.33;3.60;;;22.50;1.00;;;;;;5070855;28;20463;-76
2022/06/08 07:11:55;;;;;;;7.33;4.13;;;22.60;1.00;;;;;;5068992;28;20471;-75
2022/06/08 07:14:25;;;;;;;5.50;3.20;;;22.80;1.00;;;;;;5074945;28;20555;-76
2022/06/08 07:16:52;;;;;;;5.17;4.20;;;22.80;1.00;;;;;;5074452;28;20950;-76
2022/06/08 07:19:21;;;;;;;5.33;3.27;;;22.80;1.00;;;;;;5083499;28;20450;-74
2022/06/08 07:21:49;;;;;;;5.60;3.87;;;22.60;1.00;;;;;;5078771;28;20475;-74
2022/06/08 07:24:20;;;;;;;5.87;3.90;;;22.70;1.00;;;;;;5082734;28;20443;-75
2022/06/08 07:26:49;;;;;;;5.50;3.73;;;22.60;1.00;;;;;;5072487;28;20898;-77
2022/06/08 07:29:16;;;;;;;5.10;3.90;;;22.60;1.00;;;;;;5079555;28;20458;-73
2022/06/08 07:31:44;;;;;;;7.20;4.20;;;22.50;1.00;;;;;;5078693;28;20485;-74
2022/06/08 07:34:11;;;;;;;5.97;3.53;;;22.50;1.00;;;;;;5074767;28;20460;-76
2022/06/08 07:36:38;;;;;;;5.83;3.60;;;22.40;1.00;;;;;;5078072;28;20466;-75
2022/06/08 07:39:05;;;;;;;5.50;3.43;;;22.30;1.00;;;;;;5065479;28;20479;-76
2022/06/08 07:41:32;;;;;;;6.97;3.80;;;22.30;1.00;;;;;;5081769;28;20861;-74
2022/06/08 07:44:00;;;;;;;7.05;3.40;;;22.30;1.00;;;;;;5077303;28;20465;-75
2022/06/08 07:46:29;;;;;;;5.47;3.30;;;22.50;1.00;;;;;;5078578;28;20266;-74
2022/06/08 07:51:40;;;;;;;5.63;3.40;;;23.40;1.00;;;;;;5044621;28;20554;-76
2022/06/08 07:54:07;;;;;;;6.13;3.07;;;23.80;1.00;;;;;;5046780;28;20452;-75
2022/06/08 07:56:34;;;;;;;5.93;3.50;;;24.00;1.00;;;;;;5059148;27;20417;-76
2022/06/08 07:59:03;;;;;;;4.70;3.20;;;24.10;1.00;;;;;;5069326;27;20454;-75
2022/06/08 08:01:31;;;;;;;4.67;2.70;;;24.20;1.00;;;;;;5079417;28;20604;-75
2022/06/08 08:03:58;;;;;;;6.57;3.30;;;24.40;1.00;;;;;;5071079;28;20528;-75
2022/06/08 08:06:25;;;;;;;4.70;3.30;;;24.30;1.00;;;;;;5069080;28;20467;-75
2022/06/08 08:08:53;;;;;;;6.23;3.40;;;24.30;1.00;;;;;;5076890;28;20470;-75
2022/06/08 08:11:27;;;;;;;6.07;2.73;;;24.20;1.00;;;;;;5079782;28;20486;-76
2022/06/08 08:13:54;;;;;;;4.90;2.47;;;24.00;1.00;;;;;;5069760;28;20462;-74
2022/06/08 08:16:23;;;;;;;4.77;2.40;;;23.90;1.00;;;;;;5072774;28;20459;-76
2022/06/08 08:18:50;;;;;;;4.77;2.30;;;23.70;1.00;;;;;;5070509;28;20458;-75
2022/06/08 08:21:18;;;;;;;4.50;2.27;;;23.60;1.00;;;;;;5078453;28;20438;-76
2022/06/08 08:23:45;;;;;;;5.70;2.80;;;23.60;1.00;;;;;;5075721;28;20463;-74
2022/06/08 08:26:12;;;;;;;5.73;2.40;;;23.70;1.00;;;;;;5078778;28;20524;-78
2022/06/08 08:28:39;;;;;;;4.20;2.50;;;24.00;1.00;;;;;;5076154;28;20471;-75
2022/06/08 08:31:06;;;;;;;4.67;2.10;;;24.20;1.00;;;;;;5078962;27;21191;-76
2022/06/08 08:33:34;;;;;;;3.83;2.23;;;24.50;1.00;;;;;;5080933;28;21396;-76
2022/06/08 08:36:01;;;;;;;4.67;2.07;;;24.50;1.00;;;;;;5081126;28;20449;-77
2022/06/08 08:38:27;;;;;;;3.80;1.80;;;24.50;1.00;;;;;;5081946;28;20473;-76
2022/06/08 08:40:58;;;;;;;3.90;2.20;;;24.70;1.00;;;;;;5076949;28;20562;-75
2022/06/08 08:43:29;;;;;;;3.83;1.80;;;24.90;1.00;;;;;;5081811;28;20489;-77
2022/06/08 08:46:24;;;;;;;5.50;2.40;;;25.20;1.00;;;;;;5073213;28;20706;-75
2022/06/08 08:48:58;;;;;;;6.53;2.40;;;25.50;1.00;;;;;;5079232;27;20432;-75
2022/06/08 08:51:27;;;;;;;5.10;3.13;;;25.40;1.00;;;;;;5082668;28;20467;-75
2022/06/08 08:54:04;;;;;;;4.77;3.07;;;25.60;1.00;;;;;;5076517;28;20459;-75
2022/06/08 08:56:37;;;;;;;5.40;2.80;;;25.80;1.00;;;;;;5077024;28;20870;-76
2022/06/08 08:59:13;;;;;;;4.60;2.33;;;25.70;1.00;;;;;;5072864;28;20458;-78
2022/06/08 09:01:41;;;;;;;23.60;7.97;;;25.70;1.00;;;;;;5072580;28;20490;-77
2022/06/08 09:04:24;;;;;;;6.47;2.60;;;25.80;1.00;;;;;;5087760;28;20526;-83
2022/06/08 09:06:54;;;;;;;4.50;2.30;;;25.80;1.00;;;;;;5092881;28;20453;-80
2022/06/08 09:09:28;;;;;;;3.83;2.00;;;25.70;1.00;;;;;;5091368;28;20418;-82
2022/06/08 09:11:55;;;;;;;5.40;2.70;;;25.80;1.00;;;;;;5073358;28;20489;-82
2022/06/08 09:14:25;;;;;;;3.80;2.10;;;25.90;1.00;;;;;;5093225;28;21156;-83
2022/06/08 09:16:54;;;;;;;5.07;2.13;;;25.80;1.00;;;;;;5094490;28;20455;-83
2022/06/08 09:19:32;;;;;;;6.70;3.50;;;25.80;1.00;;;;;;5094928;28;20594;-85
2022/06/08 09:22:28;;;;;;;4.00;1.70;;;25.80;1.00;;;;;;5094763;28;20470;-81
2022/06/08 09:25:13;;;;;;;5.93;2.83;;;25.70;1.00;;;;;;5090009;28;20454;-82
2022/06/08 09:27:55;;;;;;;4.07;2.23;;;25.70;1.00;;;;;;5098366;27;20425;-83
2022/06/08 09:30:31;;;;;;;6.93;2.67;;;25.90;1.00;;;;;;5093505;28;20442;-82
2022/06/08 09:33:07;;;;;;;5.17;2.30;;;25.90;1.00;;;;;;5091920;28;20462;-83
2022/06/08 09:35:57;;;;;;;6.77;2.30;;;26.00;1.00;;;;;;5087928;28;20454;-84
2022/06/08 09:38:29;;;;;;;4.17;2.10;;;26.10;1.00;;;;;;5097435;28;20515;-83
2022/06/08 09:41:15;;;;;;;4.10;1.90;;;25.90;1.00;;;;;;5086965;27;20435;-84
2022/06/08 09:44:05;;;;;;;3.90;1.97;;;25.60;1.00;;;;;;5092030;27;20561;-84
2022/06/08 09:52:55;;;;;;;4.10;1.90;;;25.70;1.00;;;;;;5006684;28;20470;-78
2022/06/08 09:55:35;;;;;;;4.07;1.80;;;26.10;1.00;;;;;;5056592;28;20552;-77
2022/06/08 09:58:20;;;;;;;4.23;1.80;;;26.50;1.00;;;;;;5064746;28;20451;-77
2022/06/08 10:00:53;;;;;;;3.53;1.50;;;27.70;1.00;;;;;;5051949;28;20463;-78
2022/06/08 10:04:01;;;;;;;7.00;1.90;;;29.40;1.00;;;;;;5083520;28;20986;-77
2022/06/08 10:06:39;;;;;;;7.00;1.80;;;31.90;1.00;;;;;;5080934;28;20474;-80
2022/06/08 10:09:33;;;;;;;7.13;2.10;;;32.50;1.00;;;;;;5086245;28;20461;-78
2022/06/08 10:12:17;;;;;;;8.80;4.57;;;33.60;1.00;;;;;;5084342;28;20583;-79
2022/06/08 10:14:55;;;;;;;6.10;2.23;;;34.80;1.00;;;;;;5083711;28;20763;-76
2022/06/08 10:17:33;;;;;;;6.40;1.40;;;35.30;1.00;;;;;;5087078;28;20502;-75
2022/06/08 10:20:07;;;;;;;6.03;1.27;;;34.50;1.00;;;;;;5081806;28;20934;-79
2022/06/08 10:22:42;;;;;;;5.67;1.50;;;33.10;1.00;;;;;;5088221;28;20540;-77
2022/06/08 10:25:17;;;;;;;7.13;2.60;;;32.70;1.00;;;;;;5086336;28;21100;-76
2022/06/08 10:27:51;;;;;;;6.60;1.60;;;32.80;1.00;;;;;;5081920;28;20474;-77
2022/06/08 10:30:24;;;;;;;5.10;1.23;;;33.00;1.00;;;;;;5081695;27;20469;-77
2022/06/08 10:32:58;;;;;;;6.37;2.20;;;32.80;1.00;;;;;;5089629;28;20452;-77
2022/06/08 10:35:32;;;;;;;5.67;1.57;;;31.80;1.00;;;;;;5080542;28;20482;-76
2022/06/08 10:38:00;;;;;;;6.10;1.47;;;31.90;1.00;;;;;;5080158;28;20467;-76
2022/06/08 10:40:37;;;;;;;6.07;1.30;;;32.70;1.00;;;;;;5059371;28;20551;-77
2022/06/08 10:43:04;;;;;;;5.57;1.50;;;33.60;1.00;;;;;;5064350;28;20558;-76
2022/06/08 10:45:47;;;;;;;6.80;2.20;;;33.30;1.00;;;;;;5053321;28;21021;-75
2022/06/08 10:48:42;;;;;;;6.10;1.40;;;34.10;1.00;;;;;;5070049;28;20463;-76
2022/06/08 10:51:39;;;;;;;11.63;1.70;;;35.00;1.00;;;;;;5079194;28;20513;-78
2022/06/08 10:57:40;;;;;;;6.70;2.20;;;33.60;1.00;;;;;;5076163;28;20478;-77
2022/06/08 11:00:51;;;;;;;5.80;1.33;;;33.00;1.00;;;;;;5074478;28;20479;-77
2022/06/08 11:03:51;;;;;;;5.50;1.40;;;31.80;1.00;;;;;;5067051;28;20586;-77
2022/06/08 11:06:55;;;;;;;5.97;1.40;;;30.60;1.00;;;;;;5073267;28;20458;-76
2022/06/08 11:09:48;;;;;;;7.00;1.30;;;29.90;1.00;;;;;;5074244;28;20492;-77
2022/06/08 11:12:33;;;;;;;5.57;1.50;;;29.60;1.00;;;;;;5060160;28;20559;-77
2022/06/08 11:15:10;;;;;;;6.53;1.80;;;29.00;1.00;;;;;;5058280;28;20513;-77
2022/06/08 11:17:45;;;;;;;8.47;1.63;;;28.60;1.00;;;;;;5085878;28;20933;-84
2022/06/08 11:20:26;;;;;;;5.40;1.37;;;28.30;1.00;;;;;;5096428;28;20462;-83
2022/06/08 11:22:59;;;;;;;7.10;1.90;;;28.50;1.00;;;;;;5095528;28;20462;-85
2022/06/08 11:25:31;;;;;;;7.10;2.13;;;29.00;1.00;;;;;;5096415;28;20505;-85
2022/06/08 11:28:40;;;;;;;6.07;2.00;;;28.90;1.00;;;;;;5091081;28;20489;-83
2022/06/08 11:31:12;;;;;;;8.40;2.63;;;28.60;1.00;;;;;;5086088;28;20455;-82
2022/06/08 11:34:13;;;;;;;10.97;3.10;;;28.30;1.00;;;;;;5094231;28;20445;-82
2022/06/08 11:37:09;;;;;;;7.13;1.70;;;28.10;1.00;;;;;;5088237;28;20436;-83
2022/06/08 11:39:45;;;;;;;7.17;2.13;;;28.00;1.00;;;;;;5092163;28;20429;-80
2022/06/08 11:42:24;;;;;;;10.70;3.10;;;28.00;1.00;;;;;;5085784;28;20491;-82
2022/06/08 11:44:54;;;;;;;7.00;1.90;;;28.00;1.00;;;;;;5083189;28;20430;-82
2022/06/08 11:47:31;;;;;;;9.20;3.40;;;28.20;1.00;;;;;;5088651;28;20588;-83
2022/06/08 11:50:01;;;;;;;5.57;1.57;;;29.70;1.00;;;;;;5080605;28;20632;-82
2022/06/08 11:52:57;;;;;;;7.20;2.03;;;32.00;1.00;;;;;;5084412;28;20442;-80
2022/06/08 11:55:26;;;;;;;8.70;1.87;;;33.20;1.00;;;;;;5071744;28;20506;-82
2022/06/08 11:58:01;;;;;;;7.00;2.00;;;33.90;1.00;;;;;;5086451;27;21261;-83
2022/06/08 12:00:34;;;;;;;5.70;1.40;;;33.90;1.00;;;;;;5067118;28;20487;-82
2022/06/08 12:03:17;;;;;;;6.40;1.40;;;32.90;1.00;;;;;;5066467;28;20455;-84
2022/06/08 12:05:48;;;;;;;5.70;1.37;;;31.80;1.00;;;;;;5050914;28;20471;-79
2022/06/08 12:08:19;;;;;;;6.40;1.70;;;30.60;1.00;;;;;;5053172;28;20506;-77
2022/06/08 12:10:47;;;;;;;6.50;1.50;;;30.00;1.00;;;;;;5068056;28;20435;-76
2022/06/08 12:13:20;;;;;;;5.83;1.10;;;29.50;1.00;;;;;;5071289;28;20239;-78
2022/06/08 12:15:51;;;;;;;5.07;1.17;;;29.20;1.00;;;;;;5067194;27;20541;-76
2022/06/08 12:18:31;;;;;;;7.67;1.47;;;28.90;1.00;;;;;;5074317;28;20536;-77
2022/06/08 12:21:24;;;;;;;6.47;1.40;;;28.70;1.00;;;;;;5069617;28;20450;-78
2022/06/08 12:24:07;;;;;;;6.47;1.90;;;28.70;1.00;;;;;;5071596;28;20859;-76
2022/06/08 12:26:46;;;;;;;7.40;2.70;;;29.00;1.00;;;;;;5071226;28;20560;-77
2022/06/08 12:29:29;;;;;;;8.60;1.70;;;29.40;1.00;;;;;;5077382;28;20453;-75
2022/06/08 12:32:02;;;;;;;5.20;1.17;;;29.60;1.00;;;;;;5080181;28;20981;-77
2022/06/08 12:34:39;;;;;;;5.53;1.27;;;29.50;1.00;;;;;;5077682;28;20462;-77
2022/06/08 12:37:35;;;;;;;5.60;1.40;;;29.20;1.00;;;;;;5072594;28;21024;-77
2022/06/08 12:40:24;;;;;;;6.23;1.13;;;29.30;1.00;;;;;;5080079;28;20858;-76
2022/06/08 12:42:53;;;;;;;7.17;1.57;;;29.50;1.00;;;;;;5078926;28;22474;-76
2022/06/08 12:45:33;;;;;;;5.60;1.40;;;29.50;1.00;;;;;;5079125;28;20455;-76
2022/06/08 12:48:17;;;;;;;5.23;1.03;;;29.40;1.00;;;;;;5083495;28;20985;-76
2022/06/08 12:50:45;;;;;;;6.07;1.10;;;30.30;1.00;;;;;;5073906;28;20467;-76
2022/06/08 12:53:12;;;;;;;5.80;1.27;;;32.70;1.00;;;;;;5083847;28;20983;-77
2022/06/08 12:55:40;;;;;;;5.70;1.00;;;34.90;1.00;;;;;;5078332;28;20471;-76
2022/06/08 12:58:10;;;;;;;5.70;0.90;;;36.70;1.00;;;;;;5076011;28;20474;-79
2022/06/08 13:00:46;;;;;;;5.47;1.10;;;35.70;1.00;;;;;;5081164;28;20459;-80
2022/06/08 13:03:19;;;;;;;5.47;1.30;;;34.10;1.00;;;;;;5074650;28;20414;-78
2022/06/08 13:05:48;;;;;;;6.53;1.50;;;32.90;1.00;;;;;;5077149;28;20479;-77
2022/06/08 13:08:20;;;;;;;7.57;1.60;;;32.70;1.00;;;;;;5074549;28;20521;-77
2022/06/08 13:10:50;;;;;;;5.20;1.03;;;34.20;1.00;;;;;;5071926;28;20882;-79
2022/06/08 13:13:22;;;;;;;5.90;1.30;;;34.70;1.00;;;;;;5080157;28;20475;-77
2022/06/08 13:15:53;;;;;;;7.10;1.10;;;33.90;1.00;;;;;;5079658;28;20462;-77
2022/06/08 13:18:23;;;;;;;7.00;1.90;;;32.50;1.00;;;;;;5079134;28;20495;-75
2022/06/08 13:20:53;;;;;;;8.60;2.40;;;31.20;1.00;;;;;;5074631;28;20546;-77
2022/06/08 13:23:21;;;;;;;5.27;1.30;;;30.40;1.00;;;;;;5080320;28;20945;-77
2022/06/08 13:25:51;;;;;;;5.73;1.30;;;29.80;1.00;;;;;;5082462;28;20459;-77
2022/06/08 13:28:21;;;;;;;5.20;1.10;;;29.10;1.00;;;;;;5080421;28;20497;-77
2022/06/08 13:30:53;;;;;;;8.60;2.47;;;28.80;1.00;;;;;;5072698;28;20994;-77
2022/06/08 13:36:18;;;;;;;5.30;1.00;;;28.30;1.00;;;;;;5074201;28;20450;-76
2022/06/08 13:38:46;;;;;;;5.60;1.13;;;28.80;1.00;;;;;;5074520;28;20574;-78
2022/06/08 13:41:13;;;;;;;5.70;1.00;;;30.70;1.00;;;;;;5075533;28;20482;-76
2022/06/08 13:43:41;;;;;;;5.07;1.07;;;31.00;1.00;;;;;;5079249;28;20459;-77